Time;durP1;ratioP1;P1;durP2;ratioP2;P2;SDS_P1;SDS_P2;PMS_P1;PMS_P2;Temp;Humidity;BMP_temperature;BMP_pressure;BME280_temperature;BME280_humidity;BME280_pressure;Samples;Min_cycle;Max_cycle;Signal;HPM_P1;HPM_P2
2022/01/14 00:01:47;;;;;;;20.65;10.80;;;25.90;99.90;;;;;;5089990;28;20379;-83
2022/01/14 00:04:14;;;;;;;13.93;9.00;;;25.90;99.90;;;;;;5091142;28;20400;-83
2022/01/14 00:06:41;;;;;;;19.50;11.00;;;26.30;99.90;;;;;;5091025;28;20413;-83
2022/01/14 00:09:10;;;;;;;8.93;6.80;;;27.00;99.80;;;;;;5090970;28;20449;-83
2022/01/14 00:11:44;;;;;;;8.80;6.95;;;27.50;97.80;;;;;;5091117;28;20521;-83
2022/01/14 00:16:44;;;;;;;9.55;6.80;;;27.30;97.20;;;;;;5090992;28;20752;-83
2022/01/14 00:19:12;;;;;;;8.77;6.90;;;27.50;97.20;;;;;;5090797;28;20490;-83
2022/01/14 00:21:41;;;;;;;9.05;7.40;;;28.00;97.10;;;;;;5090186;28;20388;-83
2022/01/14 00:24:14;;;;;;;8.18;7.25;;;28.30;95.80;;;;;;5090434;28;20407;-83
2022/01/14 00:32:16;;;;;;;9.80;7.40;;;28.70;93.80;;;;;;5090910;28;20436;-83
2022/01/14 00:34:43;;;;;;;8.63;7.72;;;28.70;91.70;;;;;;5090563;28;20874;-83
2022/01/14 00:37:11;;;;;;;7.93;7.10;;;28.60;93.10;;;;;;5090269;28;20375;-83
2022/01/14 00:39:38;;;;;;;8.07;7.28;;;28.70;91.90;;;;;;5090593;28;20381;-83
2022/01/14 00:42:05;;;;;;;8.73;7.82;;;28.70;91.90;;;;;;5090348;28;20380;-83
2022/01/14 00:44:32;;;;;;;9.40;7.72;;;28.90;91.50;;;;;;5091081;28;20755;-83
2022/01/14 00:47:03;;;;;;;8.60;7.80;;;29.00;90.50;;;;;;5088996;28;20775;-83
2022/01/14 00:49:30;;;;;;;8.25;7.35;;;29.30;90.60;;;;;;5090285;28;20369;-83
2022/01/14 00:51:57;;;;;;;8.30;7.45;;;29.30;89.50;;;;;;5090206;28;20948;-83
2022/01/14 00:54:26;;;;;;;9.75;8.68;;;29.40;90.30;;;;;;5089422;28;20400;-83
2022/01/14 00:57:15;;;;;;;8.95;8.05;;;29.30;87.30;;;;;;5090107;28;20437;-83
2022/01/14 00:59:43;;;;;;;11.23;8.30;;;29.10;88.00;;;;;;5090050;28;20373;-83
2022/01/14 01:02:10;;;;;;;9.07;8.27;;;29.30;90.20;;;;;;5090036;28;20372;-83
2022/01/14 01:04:39;;;;;;;8.77;7.88;;;29.50;88.00;;;;;;5089864;28;20446;-83
2022/01/14 01:07:09;;;;;;;9.02;8.02;;;29.60;85.80;;;;;;5089683;28;20365;-84
2022/01/14 01:09:40;;;;;;;12.57;8.88;;;29.40;86.20;;;;;;5089838;28;20379;-83
2022/01/14 01:15:20;;;;;;;8.80;7.82;;;28.90;89.30;;;;;;5089834;28;20905;-83
2022/01/14 01:17:27;;;;;;;8.30;7.50;;;29.40;88.60;;;;;;5084206;28;20904;-84
2022/01/14 01:19:54;;;;;;;8.05;7.25;;;29.60;88.60;;;;;;5089694;28;20372;-83
2022/01/14 01:22:21;;;;;;;8.43;7.00;;;30.50;89.50;;;;;;5089595;28;20452;-84
2022/01/14 01:24:48;;;;;;;11.27;7.40;;;31.30;82.20;;;;;;5089635;28;20396;-83
2022/01/14 01:27:18;;;;;;;9.40;6.70;;;31.80;79.90;;;;;;5089591;28;20369;-83
2022/01/14 01:29:53;;;;;;;7.95;7.15;;;32.10;73.60;;;;;;5089457;28;20394;-84
2022/01/14 01:32:21;;;;;;;9.10;7.07;;;32.00;75.70;;;;;;5089594;28;20380;-83
2022/01/14 01:34:48;;;;;;;8.60;7.70;;;31.30;73.00;;;;;;5088681;28;20842;-84
2022/01/14 01:37:16;;;;;;;8.88;8.00;;;30.20;78.80;;;;;;5089205;28;20860;-83
2022/01/14 01:39:43;;;;;;;9.55;8.00;;;30.10;81.00;;;;;;5089226;28;20377;-83
2022/01/14 01:42:11;;;;;;;8.88;7.97;;;30.10;80.30;;;;;;5089311;28;20385;-83
2022/01/14 01:44:40;;;;;;;9.10;8.10;;;30.00;81.50;;;;;;5089049;28;20419;-83
2022/01/14 01:47:08;;;;;;;9.48;7.82;;;30.40;80.80;;;;;;5089190;28;20376;-82
2022/01/14 01:49:37;;;;;;;7.90;7.10;;;31.10;78.90;;;;;;5089220;28;20400;-84
2022/01/14 01:52:05;;;;;;;8.07;7.35;;;31.00;76.70;;;;;;5089053;28;20364;-84
2022/01/14 01:54:33;;;;;;;8.38;7.57;;;30.70;76.80;;;;;;5089026;28;20380;-84
2022/01/14 01:57:00;;;;;;;7.80;7.05;;;30.90;79.00;;;;;;5089013;28;20427;-84
2022/01/14 01:59:28;;;;;;;8.18;7.30;;;31.70;77.30;;;;;;5088841;28;20386;-83
2022/01/14 02:01:58;;;;;;;7.97;7.18;;;32.30;74.30;;;;;;5088916;28;20368;-83
2022/01/14 02:04:26;;;;;;;8.15;7.32;;;32.50;72.80;;;;;;5088844;28;20427;-83
2022/01/14 02:06:55;;;;;;;8.00;7.20;;;32.70;70.40;;;;;;5089263;28;20792;-83
2022/01/14 02:09:23;;;;;;;7.82;6.60;;;33.10;71.10;;;;;;5088721;28;20450;-83
2022/01/14 02:11:51;;;;;;;7.13;6.43;;;33.20;68.10;;;;;;5088730;28;20859;-84
2022/01/14 02:22:52;;;;;;;7.38;6.07;;;34.20;63.50;;;;;;5088971;28;20887;-82
2022/01/14 02:25:30;;;;;;;6.47;5.88;;;34.70;63.70;;;;;;5088642;28;20844;-83
2022/01/14 02:28:05;;;;;;;6.95;5.90;;;34.90;62.30;;;;;;5088641;28;20386;-83
2022/01/14 02:30:34;;;;;;;6.45;5.93;;;35.30;59.80;;;;;;5088603;28;20390;-84
2022/01/14 02:33:01;;;;;;;6.30;5.70;;;34.80;59.00;;;;;;5088622;28;20401;-83
2022/01/14 02:35:30;;;;;;;6.47;5.20;;;34.70;62.60;;;;;;5088501;28;20384;-83
2022/01/14 02:37:57;;;;;;;6.47;5.88;;;35.40;61.20;;;;;;5088311;28;20392;-83
2022/01/14 02:40:25;;;;;;;8.73;6.38;;;35.70;60.50;;;;;;5088518;28;20463;-84
2022/01/14 02:42:55;;;;;;;6.90;6.30;;;36.00;57.50;;;;;;5088279;28;20371;-83
2022/01/14 02:45:27;;;;;;;8.45;6.30;;;35.70;58.00;;;;;;5090759;28;20371;-84
2022/01/14 02:47:53;;;;;;;7.03;6.30;;;35.00;59.00;;;;;;5095130;28;20369;-83
2022/01/14 02:50:22;;;;;;;7.05;6.35;;;35.00;60.60;;;;;;5095145;28;20963;-86
2022/01/14 02:55:22;;;;;;;6.50;5.90;;;35.10;59.10;;;;;;5095054;28;20803;-86
2022/01/14 02:57:52;;;;;;;6.50;5.90;;;34.80;59.70;;;;;;5095099;28;20368;-87
2022/01/14 03:00:23;;;;;;;7.50;5.95;;;34.60;61.20;;;;;;5094959;28;20360;-85
2022/01/14 03:02:51;;;;;;;6.40;5.80;;;34.80;60.90;;;;;;5094960;28;20387;-83
2022/01/14 03:05:20;;;;;;;6.70;5.75;;;35.00;59.00;;;;;;5094960;28;20376;-83
2022/01/14 03:07:48;;;;;;;6.65;6.00;;;35.20;58.90;;;;;;5094949;28;20385;-83
2022/01/14 03:10:18;;;;;;;6.10;5.57;;;35.70;59.40;;;;;;5094219;28;20372;-83
2022/01/14 03:12:46;;;;;;;6.72;5.32;;;36.30;57.90;;;;;;5094765;28;20364;-83
2022/01/14 03:15:15;;;;;;;6.78;5.65;;;36.30;56.60;;;;;;5094924;28;20372;-82
2022/01/14 03:17:43;;;;;;;6.57;5.88;;;35.20;57.60;;;;;;5094687;28;20373;-83
2022/01/14 03:20:38;;;;;;;7.72;6.00;;;34.20;57.70;;;;;;5094882;28;20407;-82
2022/01/14 03:23:05;;;;;;;7.60;5.82;;;33.40;61.40;;;;;;5094489;28;20910;-84
2022/01/14 03:25:47;;;;;;;7.38;6.10;;;33.80;62.00;;;;;;5094769;28;20360;-83
2022/01/14 03:28:16;;;;;;;5.78;5.28;;;34.80;61.30;;;;;;5094855;28;20364;-83
2022/01/14 03:30:43;;;;;;;6.07;5.40;;;35.50;59.20;;;;;;5094697;28;20399;-83
2022/01/14 03:33:10;;;;;;;7.10;5.43;;;36.40;58.10;;;;;;5094670;28;20383;-83
2022/01/14 03:35:37;;;;;;;5.60;5.10;;;37.40;54.90;;;;;;5094671;28;20376;-83
2022/01/14 03:38:04;;;;;;;7.43;5.22;;;38.00;55.00;;;;;;5093161;28;20415;-84
2022/01/14 03:40:31;;;;;;;5.72;5.10;;;38.60;53.90;;;;;;5094635;28;20387;-83
2022/01/14 03:42:58;;;;;;;5.70;5.10;;;38.70;52.90;;;;;;5094528;28;20418;-83
2022/01/14 03:45:25;;;;;;;5.50;5.00;;;39.60;51.00;;;;;;5094661;28;20437;-84
2022/01/14 03:47:52;;;;;;;6.53;5.20;;;39.80;49.90;;;;;;5094523;28;20365;-83
2022/01/14 03:50:19;;;;;;;7.45;5.40;;;39.60;50.20;;;;;;5094572;28;20404;-84
2022/01/14 03:52:46;;;;;;;5.80;5.22;;;38.40;49.50;;;;;;5094519;28;20856;-84
2022/01/14 03:55:13;;;;;;;6.25;5.32;;;36.80;52.00;;;;;;5094544;28;20430;-83
2022/01/14 03:57:40;;;;;;;7.43;5.63;;;36.00;54.80;;;;;;5091633;28;20364;-83
2022/01/14 04:00:08;;;;;;;7.47;5.35;;;35.90;55.00;;;;;;5091337;28;20467;-84
2022/01/14 04:02:35;;;;;;;6.80;5.57;;;35.30;56.60;;;;;;5091165;28;20852;-83
2022/01/14 04:05:02;;;;;;;6.72;5.45;;;35.40;56.30;;;;;;5090981;28;20408;-84
2022/01/14 04:07:29;;;;;;;6.93;5.38;;;35.40;56.40;;;;;;5091107;28;20376;-83
2022/01/14 04:09:56;;;;;;;6.90;5.70;;;34.90;56.10;;;;;;5091173;28;20800;-82
2022/01/14 04:12:42;;;;;;;5.85;5.25;;;34.90;57.70;;;;;;5091089;28;20375;-83
2022/01/14 04:17:55;;;;;;;5.85;5.30;;;36.30;55.40;;;;;;5091504;28;20384;-82
2022/01/14 04:20:22;;;;;;;5.87;5.23;;;35.90;54.80;;;;;;5090755;28;20855;-83
2022/01/14 04:22:49;;;;;;;5.68;5.00;;;35.80;55.80;;;;;;5090792;28;20403;-82
2022/01/14 04:25:17;;;;;;;8.40;5.30;;;35.60;55.20;;;;;;5091226;28;20389;-88
2022/01/14 04:27:44;;;;;;;6.63;5.50;;;35.10;56.60;;;;;;5090950;28;20377;-89
2022/01/14 04:30:12;;;;;;;7.13;5.30;;;34.40;57.60;;;;;;5089588;28;20865;-81
2022/01/14 04:32:40;;;;;;;5.47;4.95;;;34.30;57.90;;;;;;5090662;28;20857;-81
2022/01/14 04:35:08;;;;;;;6.45;5.35;;;33.70;57.40;;;;;;5090544;28;20740;-87
2022/01/14 04:37:35;;;;;;;6.18;5.57;;;33.00;60.40;;;;;;5090463;28;20751;-80
2022/01/14 04:40:03;;;;;;;6.80;5.50;;;32.20;63.30;;;;;;5090490;28;20381;-81
2022/01/14 04:42:31;;;;;;;6.78;5.93;;;31.70;64.40;;;;;;5090431;28;20771;-85
2022/01/14 04:44:58;;;;;;;7.15;5.72;;;31.40;64.90;;;;;;5090403;28;20400;-86
2022/01/14 04:47:43;;;;;;;6.35;5.75;;;31.00;66.10;;;;;;5090480;28;20372;-84
2022/01/14 04:50:13;;;;;;;6.63;5.70;;;30.70;66.00;;;;;;5090722;28;20373;-85
2022/01/14 04:52:42;;;;;;;7.40;5.90;;;30.50;67.10;;;;;;5090599;28;20406;-90
2022/01/14 04:55:10;;;;;;;6.93;6.07;;;30.30;68.40;;;;;;5090676;28;20807;-87
2022/01/14 04:57:38;;;;;;;8.45;6.20;;;30.10;68.20;;;;;;5090390;28;20379;-86
2022/01/14 05:00:08;;;;;;;6.45;5.82;;;30.10;70.00;;;;;;5090349;28;20384;-85
2022/01/14 05:02:36;;;;;;;6.97;5.73;;;30.20;70.90;;;;;;5090232;28;20395;-87
2022/01/14 05:05:05;;;;;;;6.82;5.80;;;30.40;70.90;;;;;;5090191;28;20408;-86
2022/01/14 05:07:32;;;;;;;8.70;5.90;;;30.60;69.20;;;;;;5090364;28;20364;-85
2022/01/14 05:12:38;;;;;;;6.67;5.90;;;30.40;69.50;;;;;;5090473;28;20368;-90
2022/01/14 05:15:06;;;;;;;9.75;6.28;;;30.20;70.30;;;;;;5090457;28;20380;-88
2022/01/14 05:17:33;;;;;;;7.30;6.10;;;30.10;71.10;;;;;;5091372;28;20756;-86
2022/01/14 05:20:00;;;;;;;6.53;5.93;;;30.00;70.90;;;;;;5090617;28;20417;-86
2022/01/14 05:22:27;;;;;;;6.57;5.90;;;29.90;72.00;;;;;;5089965;28;20372;-85
2022/01/14 05:24:54;;;;;;;7.00;6.00;;;29.70;72.20;;;;;;5090276;28;20404;-86
2022/01/14 05:27:21;;;;;;;6.57;5.88;;;29.50;73.50;;;;;;5089848;28;20383;-86
2022/01/14 05:29:49;;;;;;;7.80;6.47;;;29.50;74.40;;;;;;5089555;28;20894;-84
2022/01/14 05:32:16;;;;;;;7.35;6.35;;;29.50;75.60;;;;;;5089563;28;20368;-83
2022/01/14 05:34:45;;;;;;;7.22;6.28;;;29.50;75.60;;;;;;5089670;28;20451;-87
2022/01/14 05:37:13;;;;;;;8.55;6.15;;;29.60;75.70;;;;;;5089343;28;20376;-85
2022/01/14 05:39:41;;;;;;;6.60;6.00;;;29.60;75.50;;;;;;5089485;28;20368;-83
2022/01/14 05:42:09;;;;;;;10.13;5.95;;;29.80;74.70;;;;;;5089390;28;20383;-84
2022/01/14 05:44:37;;;;;;;7.80;6.00;;;29.90;74.20;;;;;;5089287;28;20402;-84
2022/01/14 05:47:05;;;;;;;8.20;3.75;;;30.00;74.40;;;;;;5089347;28;20403;-84
2022/01/14 05:49:32;;;;;;;8.60;2.92;;;30.20;77.40;;;;;;5089143;28;20372;-86
2022/01/14 05:51:59;;;;;;;8.20;3.17;;;30.20;80.10;;;;;;5089139;28;20793;-84
2022/01/14 05:54:26;;;;;;;7.87;2.80;;;30.30;80.00;;;;;;5089215;28;20383;-86
2022/01/14 05:56:53;;;;;;;6.67;2.67;;;30.30;80.40;;;;;;5089078;28;20394;-86
2022/01/14 05:59:20;;;;;;;8.18;2.92;;;30.20;84.60;;;;;;5089184;28;20871;-86
2022/01/14 06:01:47;;;;;;;7.45;2.90;;;30.00;89.90;;;;;;5087912;28;20371;-88
2022/01/14 06:04:14;;;;;;;9.55;2.75;;;29.80;91.60;;;;;;5087538;28;20404;-87
2022/01/14 06:06:41;;;;;;;7.72;2.85;;;29.60;94.50;;;;;;5088898;28;20380;-90
2022/01/14 06:09:08;;;;;;;6.90;2.63;;;29.40;95.50;;;;;;5088851;28;20380;-84
2022/01/14 06:11:35;;;;;;;6.45;2.42;;;29.40;97.60;;;;;;5088850;28;20933;-83
2022/01/14 06:14:02;;;;;;;7.70;2.70;;;29.50;97.10;;;;;;5088799;28;20453;-83
2022/01/14 06:16:29;;;;;;;9.27;2.65;;;29.40;97.10;;;;;;5088690;28;20371;-84
2022/01/14 06:18:56;;;;;;;9.43;2.33;;;29.60;98.30;;;;;;5088727;28;20438;-84
2022/01/14 06:21:23;;;;;;;6.17;2.20;;;29.90;96.40;;;;;;5088219;28;20701;-84
2022/01/14 06:23:50;;;;;;;7.03;2.10;;;30.40;96.50;;;;;;5088500;28;20432;-82
2022/01/14 06:26:17;;;;;;;7.13;2.20;;;30.90;92.30;;;;;;5087290;28;20372;-84
2022/01/14 06:28:44;;;;;;;7.85;2.30;;;31.20;91.40;;;;;;5088670;28;20419;-85
2022/01/14 06:31:11;;;;;;;6.43;2.17;;;31.20;90.00;;;;;;5088576;28;20377;-83
2022/01/14 06:33:38;;;;;;;9.57;2.10;;;30.90;90.50;;;;;;5088626;28;20879;-83
2022/01/14 06:36:05;;;;;;;4.88;2.10;;;30.80;90.90;;;;;;5088367;28;20377;-83
2022/01/14 06:38:32;;;;;;;6.93;2.25;;;31.10;88.60;;;;;;5088324;28;20420;-83
2022/01/14 06:40:59;;;;;;;7.07;2.15;;;30.90;90.20;;;;;;5088496;28;20455;-83
2022/01/14 06:43:26;;;;;;;9.30;2.35;;;30.60;91.10;;;;;;5088473;28;20772;-83
2022/01/14 06:45:53;;;;;;;6.33;2.10;;;30.40;90.30;;;;;;5088431;28;20372;-82
2022/01/14 06:48:20;;;;;;;6.07;2.00;;;30.00;90.60;;;;;;5088497;28;20391;-83
2022/01/14 06:50:47;;;;;;;7.43;2.53;;;29.80;91.10;;;;;;5088383;28;20447;-87
2022/01/14 06:53:14;;;;;;;6.30;2.30;;;29.80;91.30;;;;;;5088274;28;20380;-83
2022/01/14 06:55:41;;;;;;;6.80;2.10;;;29.70;90.70;;;;;;5088317;28;20377;-85
2022/01/14 06:58:08;;;;;;;9.32;2.20;;;29.70;90.90;;;;;;5088583;28;20385;-84
2022/01/14 07:00:35;;;;;;;4.90;2.00;;;29.50;91.20;;;;;;5088998;28;20377;-85
2022/01/14 07:03:03;;;;;;;5.57;2.08;;;29.70;91.10;;;;;;5088218;28;20380;-85
2022/01/14 07:05:30;;;;;;;7.88;2.22;;;30.40;91.10;;;;;;5086848;28;20471;-85
2022/01/14 07:07:57;;;;;;;8.90;2.25;;;31.30;86.20;;;;;;5088185;28;20380;-84
2022/01/14 07:10:24;;;;;;;6.37;2.00;;;32.30;82.00;;;;;;5088155;28;20495;-84
2022/01/14 07:12:51;;;;;;;6.43;2.10;;;32.80;77.70;;;;;;5088656;28;20376;-84
2022/01/14 07:15:20;;;;;;;5.63;2.03;;;32.70;73.30;;;;;;5088220;28;20865;-84
2022/01/14 07:17:48;;;;;;;6.60;2.05;;;32.30;76.50;;;;;;5087925;28;20364;-84
2022/01/14 07:20:17;;;;;;;6.13;1.90;;;32.10;75.40;;;;;;5088049;28;20426;-84
2022/01/14 07:22:49;;;;;;;7.40;2.35;;;31.70;76.00;;;;;;5087870;28;20372;-83
2022/01/14 07:25:16;;;;;;;6.38;2.30;;;31.10;77.70;;;;;;5088091;28;20404;-85
2022/01/14 07:27:43;;;;;;;7.90;2.33;;;30.60;80.40;;;;;;5087958;28;20728;-83
2022/01/14 07:30:12;;;;;;;9.00;2.60;;;30.00;83.10;;;;;;5088011;28;20747;-83
2022/01/14 07:32:39;;;;;;;7.22;2.10;;;29.50;86.20;;;;;;5088318;28;20398;-84
2022/01/14 07:35:06;;;;;;;8.55;2.22;;;29.20;88.40;;;;;;5091790;28;20391;-83
2022/01/14 07:37:33;;;;;;;8.50;2.03;;;29.10;89.70;;;;;;5091520;28;20376;-83
2022/01/14 07:40:00;;;;;;;6.35;2.00;;;29.00;90.20;;;;;;5091709;28;20384;-83
2022/01/14 07:42:27;;;;;;;8.33;2.23;;;28.90;91.00;;;;;;5091522;28;20376;-85
2022/01/14 07:44:54;;;;;;;5.50;1.73;;;28.90;90.90;;;;;;5091458;28;20453;-83
2022/01/14 07:47:21;;;;;;;6.18;2.00;;;28.70;91.50;;;;;;5091514;28;20368;-84
2022/01/14 07:49:50;;;;;;;4.93;1.80;;;28.90;92.10;;;;;;5091471;28;20501;-84
2022/01/14 07:52:17;;;;;;;6.75;2.03;;;29.30;91.70;;;;;;5091480;28;20443;-84
2022/01/14 07:54:44;;;;;;;6.17;2.10;;;29.40;90.60;;;;;;5091411;28;20416;-84
2022/01/14 07:57:11;;;;;;;6.28;2.00;;;29.60;91.00;;;;;;5091403;28;20399;-83
2022/01/14 07:59:39;;;;;;;6.75;2.03;;;30.30;89.50;;;;;;5091362;28;20415;-84
2022/01/14 08:02:06;;;;;;;4.70;1.80;;;31.00;87.10;;;;;;5091201;28;20451;-84
2022/01/14 08:04:35;;;;;;;8.60;2.00;;;31.50;82.90;;;;;;5091451;28;20747;-84
2022/01/14 08:07:08;;;;;;;5.93;2.00;;;31.90;80.60;;;;;;5092164;28;20456;-83
2022/01/14 08:09:40;;;;;;;5.75;2.00;;;31.90;77.60;;;;;;5091181;28;20380;-84
2022/01/14 08:12:09;;;;;;;7.53;2.13;;;31.70;78.00;;;;;;5091125;28;20472;-84
2022/01/14 08:14:36;;;;;;;8.52;2.30;;;31.70;77.20;;;;;;5091065;28;20463;-83
2022/01/14 08:17:04;;;;;;;5.72;1.70;;;31.40;77.60;;;;;;5090969;28;20380;-85
2022/01/14 08:19:33;;;;;;;6.32;1.90;;;31.10;78.60;;;;;;5091366;28;20373;-83
2022/01/14 08:22:05;;;;;;;7.47;4.60;;;30.60;80.30;;;;;;5091143;28;20783;-84
2022/01/14 08:24:33;;;;;;;9.50;4.60;;;30.20;86.50;;;;;;5090889;28;20432;-84
2022/01/14 08:27:01;;;;;;;7.28;4.30;;;29.60;91.20;;;;;;5090741;28;20372;-84
2022/01/14 08:29:28;;;;;;;5.55;4.90;;;29.10;92.60;;;;;;5090841;28;20384;-84
2022/01/14 08:31:58;;;;;;;5.60;2.75;;;28.60;94.90;;;;;;5090684;28;20899;-83
2022/01/14 08:34:27;;;;;;;5.97;4.30;;;28.30;94.90;;;;;;5090717;28;20400;-84
2022/01/14 08:36:54;;;;;;;4.95;4.30;;;28.00;96.80;;;;;;5090729;28;20459;-85
2022/01/14 08:39:21;;;;;;;8.15;3.13;;;27.60;99.10;;;;;;5090343;28;20439;-84
2022/01/14 08:41:49;;;;;;;6.18;2.50;;;27.50;98.40;;;;;;5090546;28;20453;-86
2022/01/14 08:44:17;;;;;;;7.68;4.25;;;27.60;97.60;;;;;;5090200;28;20394;-84
2022/01/14 08:46:44;;;;;;;5.90;4.47;;;27.70;98.60;;;;;;5090384;28;20852;-84
2022/01/14 08:49:11;;;;;;;6.57;4.10;;;27.40;99.90;;;;;;5090460;28;20421;-83
2022/01/14 08:51:38;;;;;;;5.45;4.20;;;27.20;99.90;;;;;;5090393;28;20372;-84
2022/01/14 08:54:07;;;;;;;5.57;4.20;;;27.00;99.90;;;;;;5090273;28;20400;-83
2022/01/14 08:56:34;;;;;;;5.97;4.38;;;26.80;99.90;;;;;;5090290;28;20787;-83
2022/01/14 08:59:07;;;;;;;6.15;4.18;;;26.70;99.90;;;;;;5090058;28;20423;-84
2022/01/14 09:01:35;;;;;;;8.18;4.50;;;26.60;99.90;;;;;;5090007;28;20716;-84
2022/01/14 09:04:03;;;;;;;4.90;4.00;;;26.50;99.90;;;;;;5089981;28;20872;-83
2022/01/14 09:06:31;;;;;;;4.60;4.05;;;26.30;99.90;;;;;;5090165;28;20466;-83
2022/01/14 09:08:58;;;;;;;5.60;4.00;;;26.10;99.90;;;;;;5090014;28;20490;-83
2022/01/14 09:11:25;;;;;;;4.65;3.92;;;26.00;99.90;;;;;;5088834;28;20368;-83
2022/01/14 09:13:52;;;;;;;4.55;3.83;;;26.00;99.90;;;;;;5089892;28;20417;-83
2022/01/14 09:16:20;;;;;;;6.25;4.00;;;25.80;99.90;;;;;;5089869;28;20384;-83
2022/01/14 09:18:48;;;;;;;4.60;3.67;;;25.60;99.90;;;;;;5088463;28;20383;-83
2022/01/14 09:21:18;;;;;;;5.53;3.90;;;25.40;99.90;;;;;;5089691;28;20407;-84
2022/01/14 09:23:57;;;;;;;6.55;4.10;;;25.40;99.90;;;;;;5089514;28;20477;-83
2022/01/14 09:26:24;;;;;;;5.85;3.90;;;25.30;99.90;;;;;;5089613;28;20373;-83
2022/01/14 09:28:51;;;;;;;5.32;3.95;;;25.10;99.90;;;;;;5089623;28;20542;-83
2022/01/14 09:31:18;;;;;;;5.95;3.90;;;25.00;99.90;;;;;;5089718;28;20524;-83
2022/01/14 09:33:45;;;;;;;4.90;3.90;;;25.00;99.90;;;;;;5089556;28;20783;-83
2022/01/14 09:36:12;;;;;;;5.75;3.58;;;25.00;99.90;;;;;;5089390;28;20471;-83
2022/01/14 09:38:39;;;;;;;7.57;3.63;;;25.00;99.90;;;;;;5089265;28;20521;-84
2022/01/14 09:41:07;;;;;;;6.00;3.83;;;25.00;99.90;;;;;;5089302;28;20832;-83
2022/01/14 09:43:38;;;;;;;4.78;3.55;;;25.00;99.90;;;;;;5089288;28;20384;-83
2022/01/14 09:46:10;;;;;;;6.43;3.85;;;24.80;99.90;;;;;;5089393;28;20368;-83
2022/01/14 09:48:39;;;;;;;7.88;4.00;;;24.80;99.90;;;;;;5089289;28;20391;-83
2022/01/14 09:51:06;;;;;;;5.72;3.80;;;24.80;99.90;;;;;;5089270;28;20770;-84
2022/01/14 09:53:34;;;;;;;4.85;3.70;;;24.70;99.90;;;;;;5089231;28;20522;-83
2022/01/14 09:56:02;;;;;;;6.07;3.83;;;24.70;99.90;;;;;;5088437;28;20376;-83
2022/01/14 09:58:35;;;;;;;5.35;3.38;;;24.70;99.90;;;;;;5089226;28;20498;-84
2022/01/14 10:01:15;;;;;;;5.57;3.65;;;24.60;99.90;;;;;;5089038;28;20848;-84
2022/01/14 10:03:55;;;;;;;5.80;3.53;;;24.50;99.90;;;;;;5088927;28;20396;-84
2022/01/14 10:06:42;;;;;;;4.70;3.70;;;24.50;99.90;;;;;;5089836;28;20403;-84
2022/01/14 10:09:15;;;;;;;7.63;3.97;;;24.40;99.90;;;;;;5088919;28;20365;-87
2022/01/14 10:11:44;;;;;;;6.45;3.83;;;24.30;99.90;;;;;;5089490;28;20466;-84
2022/01/14 10:14:16;;;;;;;4.60;3.60;;;24.30;99.90;;;;;;5088864;28;20463;-83
2022/01/14 10:16:44;;;;;;;7.10;3.85;;;24.30;99.90;;;;;;5088806;28;20825;-84
2022/01/14 10:19:41;;;;;;;6.57;3.90;;;24.20;99.90;;;;;;5088828;28;20376;-84
2022/01/14 10:22:30;;;;;;;6.15;3.42;;;24.20;99.90;;;;;;5080454;28;20389;-81
2022/01/14 10:25:00;;;;;;;8.43;4.00;;;24.20;99.90;;;;;;5088634;28;20411;-83
2022/01/14 10:27:42;;;;;;;6.57;3.92;;;24.10;99.90;;;;;;5089218;28;20451;-82
2022/01/14 10:30:15;;;;;;;5.50;3.75;;;24.10;99.90;;;;;;5089169;28;20373;-83
2022/01/14 10:32:44;;;;;;;6.55;3.80;;;24.00;99.90;;;;;;5088636;28;20376;-83
2022/01/14 10:35:14;;;;;;;5.40;3.50;;;24.00;99.90;;;;;;5089171;28;20733;-83
2022/01/14 10:37:42;;;;;;;6.35;3.88;;;24.00;99.90;;;;;;5088408;28;20756;-83
2022/01/14 10:40:22;;;;;;;5.88;3.60;;;23.90;99.90;;;;;;5088668;28;20372;-85
2022/01/14 10:42:51;;;;;;;11.02;4.55;;;24.00;99.90;;;;;;5088557;28;20396;-83
2022/01/14 10:45:25;;;;;;;7.28;3.90;;;24.00;99.90;;;;;;5088808;28;20858;-83
2022/01/14 10:48:03;;;;;;;5.55;4.03;;;24.00;99.90;;;;;;5088424;28;20372;-83
2022/01/14 10:51:03;;;;;;;5.53;3.60;;;23.90;99.90;;;;;;5088810;28;20379;-83
2022/01/14 10:53:44;;;;;;;6.30;4.40;;;23.90;99.90;;;;;;5080889;28;20971;-83
2022/01/14 10:56:14;;;;;;;8.25;4.78;;;23.90;99.90;;;;;;5088308;28;20395;-83
2022/01/14 10:58:45;;;;;;;7.32;5.10;;;23.90;99.90;;;;;;5088708;28;20376;-84
2022/01/14 11:01:21;;;;;;;17.08;6.93;;;23.80;99.90;;;;;;5086999;28;20427;-84
2022/01/14 11:03:56;;;;;;;17.52;6.95;;;23.70;99.90;;;;;;5088050;28;20397;-84
2022/01/14 11:06:32;;;;;;;14.32;6.30;;;23.60;99.90;;;;;;5089758;28;20368;-83
2022/01/14 11:09:23;;;;;;;11.75;5.20;;;23.60;99.90;;;;;;5092277;28;20364;-84
2022/01/14 11:11:51;;;;;;;17.57;6.10;;;23.50;99.90;;;;;;5092240;28;20373;-85
2022/01/14 11:14:18;;;;;;;11.88;5.40;;;23.50;99.90;;;;;;5092237;28;20380;-84
2022/01/14 11:16:46;;;;;;;11.15;5.07;;;23.60;99.90;;;;;;5090990;28;20880;-83
2022/01/14 11:19:14;;;;;;;6.57;3.90;;;23.50;99.90;;;;;;5092590;28;20384;-84
2022/01/14 11:24:33;;;;;;;6.75;4.07;;;23.50;99.90;;;;;;5092443;28;20417;-84
2022/01/14 11:27:12;;;;;;;5.78;3.80;;;23.50;99.90;;;;;;5092069;28;20363;-84
2022/01/14 11:29:43;;;;;;;6.50;3.85;;;23.50;99.90;;;;;;5091858;28;20450;-84
2022/01/14 11:32:10;;;;;;;6.20;3.90;;;23.40;99.90;;;;;;5091752;28;20392;-83
2022/01/14 11:34:42;;;;;;;6.22;4.00;;;23.40;99.90;;;;;;5091756;28;20383;-84
2022/01/14 11:37:13;;;;;;;7.30;4.28;;;23.40;99.90;;;;;;5092138;28;20371;-84
2022/01/14 11:39:53;;;;;;;5.47;4.05;;;23.40;99.90;;;;;;5091763;28;20897;-84
2022/01/14 11:42:38;;;;;;;6.88;4.07;;;23.40;99.90;;;;;;5091753;28;20928;-84
2022/01/14 11:45:06;;;;;;;6.17;4.20;;;23.40;99.90;;;;;;5091686;28;20446;-83
2022/01/14 11:47:39;;;;;;;5.88;4.07;;;23.30;99.90;;;;;;5091597;28;20469;-83
2022/01/14 11:50:27;;;;;;;5.78;3.90;;;23.30;99.90;;;;;;5091921;28;20410;-83
2022/01/14 11:52:57;;;;;;;6.53;3.90;;;23.30;99.90;;;;;;5091759;28;20411;-82
2022/01/14 11:55:24;;;;;;;7.35;4.40;;;23.20;99.90;;;;;;5091537;28;20422;-83
2022/01/14 11:58:07;;;;;;;7.07;4.10;;;23.20;99.90;;;;;;5091495;28;20379;-83
2022/01/14 12:03:14;;;;;;;6.07;4.40;;;23.10;99.90;;;;;;5091325;28;20397;-83
2022/01/14 12:05:54;;;;;;;6.80;4.10;;;23.10;99.90;;;;;;5091859;28;20374;-82
2022/01/14 12:08:26;;;;;;;7.30;4.32;;;23.10;99.90;;;;;;5091295;28;20429;-83
2022/01/14 12:11:16;;;;;;;6.88;4.20;;;23.10;99.90;;;;;;5091256;28;20929;-83
2022/01/14 12:14:04;;;;;;;8.18;4.20;;;23.10;99.90;;;;;;5091214;28;20844;-82
2022/01/14 12:16:45;;;;;;;8.05;4.32;;;23.10;99.90;;;;;;5091178;28;20479;-88
2022/01/14 12:19:15;;;;;;;7.53;4.45;;;23.00;99.90;;;;;;5090325;28;20369;-83
2022/01/14 12:21:47;;;;;;;7.30;4.30;;;23.00;99.90;;;;;;5091388;28;20395;-83
2022/01/14 12:24:17;;;;;;;7.05;4.22;;;22.90;99.90;;;;;;5090854;28;20403;-82
2022/01/14 12:27:11;;;;;;;7.03;4.30;;;22.90;99.90;;;;;;5090902;28;20380;-83
2022/01/14 12:29:42;;;;;;;7.57;4.22;;;22.80;99.90;;;;;;5090801;28;20876;-82
2022/01/14 12:32:32;;;;;;;9.32;4.05;;;22.80;99.90;;;;;;5091366;28;20380;-83
2022/01/14 12:35:03;;;;;;;7.95;3.88;;;22.80;99.90;;;;;;5085117;28;20380;-83
2022/01/14 12:38:00;;;;;;;9.52;4.70;;;22.80;99.90;;;;;;5090632;28;20419;-82
2022/01/14 12:40:31;;;;;;;8.38;4.60;;;22.80;99.90;;;;;;5082027;28;20454;-83
2022/01/14 12:43:05;;;;;;;8.63;4.63;;;22.80;99.90;;;;;;5090577;28;20887;-83
2022/01/14 12:45:41;;;;;;;7.43;4.65;;;22.70;99.90;;;;;;5090547;28;20369;-82
2022/01/14 12:48:28;;;;;;;7.28;4.65;;;22.60;99.90;;;;;;5091147;28;20467;-83
2022/01/14 12:51:05;;;;;;;6.28;4.80;;;22.50;99.90;;;;;;5091283;28;20683;-83
2022/01/14 12:53:33;;;;;;;8.27;4.95;;;22.50;99.90;;;;;;5090886;28;20842;-83
2022/01/14 12:56:02;;;;;;;8.45;4.70;;;22.50;99.90;;;;;;5090376;28;20402;-83
2022/01/14 12:58:49;;;;;;;8.55;4.60;;;22.40;99.90;;;;;;5090266;28;20372;-83
2022/01/14 13:01:16;;;;;;;8.85;4.72;;;22.40;99.90;;;;;;5090440;28;20372;-83
2022/01/14 13:03:43;;;;;;;9.18;4.90;;;22.40;99.90;;;;;;5090029;28;20423;-83
2022/01/14 13:06:11;;;;;;;8.05;4.43;;;22.40;99.90;;;;;;5090145;28;20761;-84
2022/01/14 13:08:38;;;;;;;7.05;4.43;;;22.40;99.90;;;;;;5090120;28;20368;-83
2022/01/14 13:11:06;;;;;;;8.17;4.57;;;22.50;99.90;;;;;;5090092;28;20376;-83
2022/01/14 13:13:33;;;;;;;7.50;4.60;;;22.50;99.90;;;;;;5090009;28;20395;-83
2022/01/14 13:16:05;;;;;;;7.68;4.43;;;22.50;99.90;;;;;;5089965;28;20909;-83
2022/01/14 13:18:43;;;;;;;6.35;4.50;;;22.50;99.90;;;;;;5089895;28;20404;-83
2022/01/14 13:21:11;;;;;;;7.38;4.40;;;22.40;99.90;;;;;;5089892;28;20368;-83
2022/01/14 13:23:38;;;;;;;5.78;4.30;;;22.40;99.90;;;;;;5089709;28;20398;-83
2022/01/14 13:26:10;;;;;;;7.90;4.13;;;22.30;99.90;;;;;;5089703;28;20490;-83
2022/01/14 13:28:37;;;;;;;5.75;3.90;;;22.30;99.90;;;;;;5089719;28;20434;-83
2022/01/14 13:31:10;;;;;;;6.25;4.10;;;22.30;99.90;;;;;;5089196;28;20425;-82
2022/01/14 13:33:37;;;;;;;5.95;3.88;;;22.30;99.90;;;;;;5089672;28;20401;-83